Aeroporto :
LOGIN :

Iscrizione | Disclaimer

   EN    FR    IT 

 










Sommario :    VFR   VFR Marginale   IFR   IFR Intensivo   IFR Molto Intensivo
Visibilità : 
Base nubi : 
>= 8 km
>= 3000ft
5 / 8 km
1000 / 3000 ft
1500m / 5 km
500 / 1000 ft
800 / 1500m
200 / 500 ft
< 800m
< 200 ft
Simboli :   Temporali  Nebbia  Neve Forte  Precipitazioni Forti  Vento > 20 kt
SIGMETs :   Varie  Temporali  Ghiacco  Turbolenza  Onda orograficha  Ceneri Vulcaniche






- Altitudine del aeroporto : 195 ft


LFMY - Salon de Provence

ULTIMO METAR :
  • 231930Z AUTO 00000KT CAVOK 18/16 Q1011

METARs OBSOLETI :
  • 231900Z AUTO 07002KT CAVOK 18/16 Q1010
  • 231830Z AUTO 12002KT CAVOK 19/16 Q1010
  • 231800Z AUTO 00000KT CAVOK 20/16 Q1010
  • 231730Z AUTO 21003KT CAVOK 21/16 Q1010
  • 231700Z AUTO 21005KT CAVOK 22/16 Q1010

TAF TAF LFMY
Valido dal 23 a 15 ore il 24 a 15 ore UTC


231400Z 2315/2415 20010KT 9999 FEW035
BECMG 2318/2320 VRB02KT
PROB30
TEMPO 2320/2324 3000 BR
TEMPO 2400/2408 FEW040CB
PROB30
TEMPO 2401/2407 3000 SHRA BKN040CB



MetMap, La meteo Aeronautica in un colpo d'occhio ! - Copyright ORBIFLY Dicembre 2007 - Disclaimer

ORBIFLY MET'MAP TEAM :

Programmazione e sviluppo : Alexandra Zaïnal
Concezione : Baudouin d'Aumeries
Aiuto per la programmazione : Marc-Olivier Méhu
Supporto tecnico e logistico : Manuel Goepfert
Aiuto per la traduzione : Arnaldo La Scala

Contatto : metmap@orbifly.com




FONTI E CREDITI :

   NOAA